sensor_id;sensor_type;location;lat;lon;timestamp;pressure;altitude;pressure_sealevel;temperature;humidity
44079;BME280;29744;49.078;12.878;2023-05-23T00:03:43;96006.34;;;16.48;41.10
44079;BME280;29744;49.078;12.878;2023-05-23T00:08:44;96012.91;;;16.47;41.08
44079;BME280;29744;49.078;12.878;2023-05-23T00:13:44;96017.19;;;16.48;40.78
44079;BME280;29744;49.078;12.878;2023-05-23T00:18:45;96016.41;;;16.48;41.16
44079;BME280;29744;49.078;12.878;2023-05-23T00:23:46;96021.03;;;16.47;41.04
44079;BME280;29744;49.078;12.878;2023-05-23T00:28:46;96020.25;;;16.47;41.15
44079;BME280;29744;49.078;12.878;2023-05-23T00:33:46;96014.81;;;16.47;41.25
44079;BME280;29744;49.078;12.878;2023-05-23T00:38:47;96020.25;;;16.47;41.08
44079;BME280;29744;49.078;12.878;2023-05-23T00:43:48;96020.25;;;16.47;41.02
44079;BME280;29744;49.078;12.878;2023-05-23T00:48:48;96031.06;;;16.47;41.11
44079;BME280;29744;49.078;12.878;2023-05-23T00:53:49;96024.88;;;16.46;41.02
44079;BME280;29744;49.078;12.878;2023-05-23T00:58:49;96016.75;;;16.46;41.09
44079;BME280;29744;49.078;12.878;2023-05-23T01:03:49;96019.44;;;16.46;41.38
44079;BME280;29744;49.078;12.878;2023-05-23T01:08:50;96019.44;;;16.46;40.99
44079;BME280;29744;49.078;12.878;2023-05-23T01:13:58;96017.88;;;16.45;41.13
44079;BME280;29744;49.078;12.878;2023-05-23T01:19:18;96013.59;;;16.44;41.11
44079;BME280;29744;49.078;12.878;2023-05-23T01:29:30;96016.31;;;16.44;41.03
44079;BME280;29744;49.078;12.878;2023-05-23T01:34:33;96014.38;;;16.45;41.24
44079;BME280;29744;49.078;12.878;2023-05-23T01:39:34;96014.38;;;16.45;41.00
44079;BME280;29744;49.078;12.878;2023-05-23T01:44:34;96013.59;;;16.44;41.08
44079;BME280;29744;49.078;12.878;2023-05-23T01:49:36;96019.00;;;16.44;41.29
44079;BME280;29744;49.078;12.878;2023-05-23T01:54:37;96016.66;;;16.42;40.84
44079;BME280;29744;49.078;12.878;2023-05-23T01:59:38;96031.75;;;16.44;40.87
44079;BME280;29744;49.078;12.878;2023-05-23T02:04:38;96028.25;;;16.43;41.17
44079;BME280;29744;49.078;12.878;2023-05-23T02:09:38;96030.97;;;16.43;41.04
44079;BME280;29744;49.078;12.878;2023-05-23T02:14:38;96035.59;;;16.42;41.35
44079;BME280;29744;49.078;12.878;2023-05-23T02:19:41;96030.97;;;16.43;40.95
44079;BME280;29744;49.078;12.878;2023-05-23T02:24:41;96030.19;;;16.42;41.13
44079;BME280;29744;49.078;12.878;2023-05-23T02:29:41;96027.47;;;16.42;41.07
44079;BME280;29744;49.078;12.878;2023-05-23T02:34:42;96032.09;;;16.42;41.37
44079;BME280;29744;49.078;12.878;2023-05-23T02:39:45;96037.50;;;16.42;41.22
44079;BME280;29744;49.078;12.878;2023-05-23T02:44:45;96047.56;;;16.41;41.11
44079;BME280;29744;49.078;12.878;2023-05-23T02:49:46;96069.22;;;16.41;41.07
44079;BME280;29744;49.078;12.878;2023-05-23T02:54:46;96070.34;;;16.40;41.20
44079;BME280;29744;49.078;12.878;2023-05-23T02:59:46;96066.03;;;16.39;40.85
44079;BME280;29744;49.078;12.878;2023-05-23T03:04:47;96069.53;;;16.40;41.03
44079;BME280;29744;49.078;12.878;2023-05-23T03:09:47;96059.50;;;16.40;41.09
44079;BME280;29744;49.078;12.878;2023-05-23T03:14:47;96058.69;;;16.40;41.03
44079;BME280;29744;49.078;12.878;2023-05-23T03:19:48;96051.38;;;16.40;41.38
44079;BME280;29744;49.078;12.878;2023-05-23T03:24:48;96053.28;;;16.40;41.15
44079;BME280;29744;49.078;12.878;2023-05-23T03:29:48;96049.00;;;16.39;41.26
44079;BME280;29744;49.078;12.878;2023-05-23T03:34:48;96051.72;;;16.39;41.16
44079;BME280;29744;49.078;12.878;2023-05-23T03:39:49;96047.09;;;16.39;41.14
44079;BME280;29744;49.078;12.878;2023-05-23T03:44:49;96043.59;;;16.39;41.08
44079;BME280;29744;49.078;12.878;2023-05-23T03:49:49;96034.69;;;16.38;41.13
44079;BME280;29744;49.078;12.878;2023-05-23T03:54:50;96049.78;;;16.39;41.14
44079;BME280;29744;49.078;12.878;2023-05-23T03:59:50;96061.75;;;16.38;41.14
44079;BME280;29744;49.078;12.878;2023-05-23T04:04:51;96060.63;;;16.39;41.14
44079;BME280;29744;49.078;12.878;2023-05-23T04:09:53;96053.28;;;16.40;41.07
44079;BME280;29744;49.078;12.878;2023-05-23T04:14:53;96068.72;;;16.39;41.12
44079;BME280;29744;49.078;12.878;2023-05-23T04:19:53;96051.72;;;16.39;40.94
44079;BME280;29744;49.078;12.878;2023-05-23T04:24:53;96051.72;;;16.39;40.92
44079;BME280;29744;49.078;12.878;2023-05-23T04:29:54;96059.81;;;16.39;40.97
44079;BME280;29744;49.078;12.878;2023-05-23T04:34:55;96061.75;;;16.38;41.03
44079;BME280;29744;49.078;12.878;2023-05-23T04:39:55;96040.88;;;16.39;41.03
44079;BME280;29744;49.078;12.878;2023-05-23T04:44:56;96037.03;;;16.40;40.88
44079;BME280;29744;49.078;12.878;2023-05-23T04:50:01;96052.50;;;16.39;41.35
44079;BME280;29744;49.078;12.878;2023-05-23T04:55:02;96060.31;;;16.41;41.32
44079;BME280;29744;49.078;12.878;2023-05-23T05:00:03;96060.31;;;16.41;40.93
44079;BME280;29744;49.078;12.878;2023-05-23T05:05:09;96061.09;;;16.41;41.02
44079;BME280;29744;49.078;12.878;2023-05-23T05:10:10;96064.56;;;16.42;41.02
44079;BME280;29744;49.078;12.878;2023-05-23T05:15:16;96061.88;;;16.42;41.21
44079;BME280;29744;49.078;12.878;2023-05-23T05:20:16;96074.28;;;16.43;41.30
44079;BME280;29744;49.078;12.878;2023-05-23T05:25:16;96076.63;;;16.45;41.40
44079;BME280;29744;49.078;12.878;2023-05-23T05:30:17;96077.41;;;16.45;41.19
44079;BME280;29744;49.078;12.878;2023-05-23T05:35:17;96074.72;;;16.45;41.01
44079;BME280;29744;49.078;12.878;2023-05-23T05:40:18;96088.25;;;16.45;40.91
44079;BME280;29744;49.078;12.878;2023-05-23T05:45:18;96089.81;;;16.46;41.17
44079;BME280;29744;49.078;12.878;2023-05-23T05:50:18;96092.19;;;16.48;41.03
44079;BME280;29744;49.078;12.878;2023-05-23T05:55:19;96085.97;;;16.47;41.21
44079;BME280;29744;49.078;12.878;2023-05-23T06:00:20;96086.78;;;16.48;41.17
44079;BME280;29744;49.078;12.878;2023-05-23T06:05:20;96094.56;;;16.49;41.08
44079;BME280;29744;49.078;12.878;2023-05-23T06:10:21;96101.53;;;16.50;41.04
44079;BME280;29744;49.078;12.878;2023-05-23T06:15:21;96094.22;;;16.51;40.76
44079;BME280;29744;49.078;12.878;2023-05-23T06:20:21;96095.00;;;16.51;40.71
44079;BME280;29744;49.078;12.878;2023-05-23T06:25:22;96094.22;;;16.51;41.07
44079;BME280;29744;49.078;12.878;2023-05-23T06:30:22;96096.56;;;16.52;41.16
44079;BME280;29744;49.078;12.878;2023-05-23T06:35:23;96091.94;;;16.53;40.63
44079;BME280;29744;49.078;12.878;2023-05-23T06:40:23;96098.13;;;16.53;40.90
44079;BME280;29744;49.078;12.878;2023-05-23T06:45:23;96099.75;;;16.54;40.89
44079;BME280;29744;49.078;12.878;2023-05-23T06:50:24;96100.53;;;16.55;40.85
44079;BME280;29744;49.078;12.878;2023-05-23T06:55:24;96104.03;;;16.55;40.62
44079;BME280;29744;49.078;12.878;2023-05-23T07:00:25;96107.53;;;16.56;40.85
44079;BME280;29744;49.078;12.878;2023-05-23T07:05:28;96115.31;;;16.57;41.10
44079;BME280;29744;49.078;12.878;2023-05-23T07:10:28;96114.16;;;16.58;40.79
44079;BME280;29744;49.078;12.878;2023-05-23T07:15:28;96112.59;;;16.57;40.92
44079;BME280;29744;49.078;12.878;2023-05-23T07:20:29;96108.75;;;16.58;40.58
44079;BME280;29744;49.078;12.878;2023-05-23T07:25:29;96113.03;;;16.59;40.71
44079;BME280;29744;49.078;12.878;2023-05-23T07:30:29;96106.50;;;16.60;40.71
44079;BME280;29744;49.078;12.878;2023-05-23T07:35:30;96112.69;;;16.61;40.84
44079;BME280;29744;49.078;12.878;2023-05-23T07:40:30;96102.66;;;16.61;40.78
44079;BME280;29744;49.078;12.878;2023-05-23T07:45:30;96102.66;;;16.61;40.50
44079;BME280;29744;49.078;12.878;2023-05-23T07:50:31;96103.44;;;16.62;41.02
44079;BME280;29744;49.078;12.878;2023-05-23T07:55:31;96107.72;;;16.63;40.80
44079;BME280;29744;49.078;12.878;2023-05-23T08:00:31;96106.94;;;16.62;40.69
44079;BME280;29744;49.078;12.878;2023-05-23T08:05:32;96105.81;;;16.63;40.84
44079;BME280;29744;49.078;12.878;2023-05-23T08:10:32;96112.00;;;16.64;40.73
44079;BME280;29744;49.078;12.878;2023-05-23T08:15:32;96110.09;;;16.64;40.93
44079;BME280;29744;49.078;12.878;2023-05-23T08:20:33;96111.66;;;16.65;40.77
44079;BME280;29744;49.078;12.878;2023-05-23T08:25:33;96114.81;;;16.67;40.62
44079;BME280;29744;49.078;12.878;2023-05-23T08:30:33;96122.94;;;16.67;40.46
44079;BME280;29744;49.078;12.878;2023-05-23T08:35:34;96115.59;;;16.68;40.39
44079;BME280;29744;49.078;12.878;2023-05-23T08:40:35;96120.66;;;16.69;40.63
44079;BME280;29744;49.078;12.878;2023-05-23T08:45:36;96126.88;;;16.70;40.68
44079;BME280;29744;49.078;12.878;2023-05-23T08:50:36;96122.25;;;16.70;40.40
44079;BME280;29744;49.078;12.878;2023-05-23T08:55:39;96129.22;;;16.71;41.00
44079;BME280;29744;49.078;12.878;2023-05-23T09:00:41;96131.94;;;16.71;40.58
44079;BME280;29744;49.078;12.878;2023-05-23T09:05:41;96131.16;;;16.71;40.72
44079;BME280;29744;49.078;12.878;2023-05-23T09:10:42;96134.66;;;16.71;40.60
44079;BME280;29744;49.078;12.878;2023-05-23T09:16:09;96140.41;;;16.70;40.72
44079;BME280;29744;49.078;12.878;2023-05-23T09:21:10;96135.59;;;16.63;40.66
44079;BME280;29744;49.078;12.878;2023-05-23T09:26:11;96133.88;;;16.71;40.98
44079;BME280;29744;49.078;12.878;2023-05-23T09:31:12;96138.16;;;16.72;40.89
44079;BME280;29744;49.078;12.878;2023-05-23T09:36:13;96132.38;;;16.73;40.98
44079;BME280;29744;49.078;12.878;2023-05-23T09:41:14;96137.44;;;16.75;40.45
44079;BME280;29744;49.078;12.878;2023-05-23T09:46:14;96133.63;;;16.76;40.75
44079;BME280;29744;49.078;12.878;2023-05-23T09:51:18;96129.78;;;16.77;40.83
44079;BME280;29744;49.078;12.878;2023-05-23T09:56:20;96117.81;;;16.78;40.41
44079;BME280;29744;49.078;12.878;2023-05-23T10:01:24;96124.00;;;16.79;40.81
44079;BME280;29744;49.078;12.878;2023-05-23T10:06:33;96122.44;;;16.78;40.75
44079;BME280;29744;49.078;12.878;2023-05-23T10:17:20;96103.81;;;16.76;40.60
44079;BME280;29744;49.078;12.878;2023-05-23T10:22:26;96088.38;;;16.77;40.74
44079;BME280;29744;49.078;12.878;2023-05-23T10:27:26;96094.56;;;16.77;40.77
44079;BME280;29744;49.078;12.878;2023-05-23T10:32:27;96097.28;;;16.77;40.90
44079;BME280;29744;49.078;12.878;2023-05-23T10:37:56;96107.75;;;16.79;40.37
44079;BME280;29744;49.078;12.878;2023-05-23T10:43:13;96103.47;;;16.78;40.67
44079;BME280;29744;49.078;12.878;2023-05-23T10:53:28;96127.84;;;16.78;40.66
44079;BME280;29744;49.078;12.878;2023-05-23T10:58:29;96120.50;;;16.78;40.68
44079;BME280;29744;49.078;12.878;2023-05-23T11:08:46;96125.94;;;16.78;40.64
44079;BME280;29744;49.078;12.878;2023-05-23T11:13:57;96124.81;;;16.79;40.36
44079;BME280;29744;49.078;12.878;2023-05-23T11:24:18;96119.03;;;16.81;40.63
44079;BME280;29744;49.078;12.878;2023-05-23T11:29:18;96120.97;;;16.80;41.01
44079;BME280;29744;49.078;12.878;2023-05-23T11:34:19;96121.75;;;16.81;40.86
44079;BME280;29744;49.078;12.878;2023-05-23T11:39:21;96121.75;;;16.81;40.72
44079;BME280;29744;49.078;12.878;2023-05-23T11:44:21;96120.97;;;16.80;40.85
44079;BME280;29744;49.078;12.878;2023-05-23T11:49:21;96123.31;;;16.82;40.38
44079;BME280;29744;49.078;12.878;2023-05-23T11:54:25;96133.03;;;16.83;40.54
44079;BME280;29744;49.078;12.878;2023-05-23T11:59:26;96135.72;;;16.83;40.35
44079;BME280;29744;49.078;12.878;2023-05-23T12:04:27;96147.34;;;16.83;40.86
44079;BME280;29744;49.078;12.878;2023-05-23T12:09:27;96144.66;;;16.83;40.60
44079;BME280;29744;49.078;12.878;2023-05-23T12:14:28;96143.50;;;16.84;40.71
44079;BME280;29744;49.078;12.878;2023-05-23T12:19:28;96146.22;;;16.84;40.66
44079;BME280;29744;49.078;12.878;2023-05-23T12:24:28;96142.38;;;16.85;40.59
44079;BME280;29744;49.078;12.878;2023-05-23T12:29:32;96141.59;;;16.85;40.63
44079;BME280;29744;49.078;12.878;2023-05-23T12:34:33;96151.63;;;16.84;40.69
44079;BME280;29744;49.078;12.878;2023-05-23T12:39:35;96144.28;;;16.85;40.42
44079;BME280;29744;49.078;12.878;2023-05-23T12:44:35;96155.13;;;16.85;40.65
44079;BME280;29744;49.078;12.878;2023-05-23T12:49:36;96152.88;;;16.87;40.62
44079;BME280;29744;49.078;12.878;2023-05-23T12:54:37;96151.28;;;16.86;40.77
44079;BME280;29744;49.078;12.878;2023-05-23T12:59:37;96159.41;;;16.86;40.59
44079;BME280;29744;49.078;12.878;2023-05-23T13:04:37;96152.06;;;16.86;40.58
44079;BME280;29744;49.078;12.878;2023-05-23T13:09:38;96148.59;;;16.86;40.86
44079;BME280;29744;49.078;12.878;2023-05-23T13:14:39;96143.94;;;16.86;40.59
44079;BME280;29744;49.078;12.878;2023-05-23T13:19:39;96148.59;;;16.86;40.60
44079;BME280;29744;49.078;12.878;2023-05-23T13:24:39;96143.16;;;16.86;40.64
44079;BME280;29744;49.078;12.878;2023-05-23T13:29:40;96133.13;;;16.86;40.62
44079;BME280;29744;49.078;12.878;2023-05-23T13:34:41;96131.53;;;16.85;40.88
44079;BME280;29744;49.078;12.878;2023-05-23T13:39:41;96126.91;;;16.86;40.62
44079;BME280;29744;49.078;12.878;2023-05-23T13:44:42;96130.41;;;16.86;40.46
44079;BME280;29744;49.078;12.878;2023-05-23T13:49:42;96124.22;;;16.86;40.72
44079;BME280;29744;49.078;12.878;2023-05-23T13:54:42;96125.00;;;16.86;40.46
44079;BME280;29744;49.078;12.878;2023-05-23T13:59:43;96112.25;;;16.87;40.77
44079;BME280;29744;49.078;12.878;2023-05-23T14:04:43;96126.56;;;16.87;40.87
44079;BME280;29744;49.078;12.878;2023-05-23T14:09:43;96129.63;;;16.86;40.56
44079;BME280;29744;49.078;12.878;2023-05-23T14:14:44;96134.69;;;16.87;40.70
44079;BME280;29744;49.078;12.878;2023-05-23T14:19:44;96144.75;;;16.87;40.84
44079;BME280;29744;49.078;12.878;2023-05-23T14:24:45;96149.38;;;16.86;40.68
44079;BME280;29744;49.078;12.878;2023-05-23T14:29:46;96149.38;;;16.86;40.83
44079;BME280;29744;49.078;12.878;2023-05-23T14:34:46;96151.28;;;16.86;40.49
44079;BME280;29744;49.078;12.878;2023-05-23T14:39:46;96154.00;;;16.86;40.85
44079;BME280;29744;49.078;12.878;2023-05-23T14:44:47;96165.63;;;16.86;40.93
44079;BME280;29744;49.078;12.878;2023-05-23T14:49:47;96162.13;;;16.86;40.82
44079;BME280;29744;49.078;12.878;2023-05-23T14:54:47;96171.03;;;16.86;40.73
44079;BME280;29744;49.078;12.878;2023-05-23T14:59:47;96169.13;;;16.87;40.85
44079;BME280;29744;49.078;12.878;2023-05-23T15:04:48;96179.94;;;16.87;40.88
44079;BME280;29744;49.078;12.878;2023-05-23T15:09:48;96190.78;;;16.87;40.44
44079;BME280;29744;49.078;12.878;2023-05-23T15:14:48;96191.91;;;16.86;40.57
44079;BME280;29744;49.078;12.878;2023-05-23T15:19:49;96207.03;;;16.87;40.51
44079;BME280;29744;49.078;12.878;2023-05-23T15:24:49;96205.47;;;16.86;40.47
44079;BME280;29744;49.078;12.878;2023-05-23T15:29:49;96192.69;;;16.86;40.71
44079;BME280;29744;49.078;12.878;2023-05-23T15:34:50;96217.06;;;16.86;40.76
44079;BME280;29744;49.078;12.878;2023-05-23T15:39:50;96208.94;;;16.86;40.75
44079;BME280;29744;49.078;12.878;2023-05-23T15:44:51;96208.94;;;16.86;40.72
44079;BME280;29744;49.078;12.878;2023-05-23T15:49:51;96217.19;;;16.90;41.03
44079;BME280;29744;49.078;12.878;2023-05-23T15:54:51;96220.44;;;16.95;41.57
44079;BME280;29744;49.078;12.878;2023-05-23T15:59:51;96219.06;;;17.01;41.15
44079;BME280;29744;49.078;12.878;2023-05-23T16:04:52;96224.66;;;17.09;41.89
44079;BME280;29744;49.078;12.878;2023-05-23T16:09:52;96226.00;;;17.15;41.53
44079;BME280;29744;49.078;12.878;2023-05-23T16:14:52;96224.63;;;17.21;41.44
44079;BME280;29744;49.078;12.878;2023-05-23T16:19:53;96226.41;;;17.29;41.62
44079;BME280;29744;49.078;12.878;2023-05-23T16:24:53;96228.88;;;17.34;41.67
44079;BME280;29744;49.078;12.878;2023-05-23T16:29:53;96227.47;;;17.40;41.50
44079;BME280;29744;49.078;12.878;2023-05-23T16:34:53;96219.44;;;17.44;41.45
44079;BME280;29744;49.078;12.878;2023-05-23T16:39:54;96222.59;;;17.46;41.15
44079;BME280;29744;49.078;12.878;2023-05-23T16:44:54;96230.03;;;17.49;41.69
44079;BME280;29744;49.078;12.878;2023-05-23T16:49:54;96225.41;;;17.49;41.16
44079;BME280;29744;49.078;12.878;2023-05-23T16:54:55;96227.78;;;17.51;41.14
44079;BME280;29744;49.078;12.878;2023-05-23T16:59:55;96245.97;;;17.50;41.09
44079;BME280;29744;49.078;12.878;2023-05-23T17:04:55;96246.75;;;17.51;41.35
44079;BME280;29744;49.078;12.878;2023-05-23T17:09:56;96247.53;;;17.51;41.14
44079;BME280;29744;49.078;12.878;2023-05-23T17:14:56;96247.53;;;17.51;41.28
44079;BME280;29744;49.078;12.878;2023-05-23T17:19:56;96246.75;;;17.51;41.50
44079;BME280;29744;49.078;12.878;2023-05-23T17:24:57;96261.44;;;17.50;41.17
44079;BME280;29744;49.078;12.878;2023-05-23T17:29:58;96267.66;;;17.50;41.41
44079;BME280;29744;49.078;12.878;2023-05-23T17:34:59;96268.34;;;17.47;41.16
44079;BME280;29744;49.078;12.878;2023-05-23T17:39:59;96260.56;;;17.46;41.21
44079;BME280;29744;49.078;12.878;2023-05-23T17:45:00;96269.47;;;17.46;41.34
44079;BME280;29744;49.078;12.878;2023-05-23T17:50:02;96273.31;;;17.45;41.13
44079;BME280;29744;49.078;12.878;2023-05-23T17:55:03;96270.97;;;17.44;41.47
44079;BME280;29744;49.078;12.878;2023-05-23T18:00:04;96278.31;;;17.43;41.15
44079;BME280;29744;49.078;12.878;2023-05-23T18:05:05;96274.81;;;17.43;41.17
44079;BME280;29744;49.078;12.878;2023-05-23T18:10:07;96272.44;;;17.41;41.20
44079;BME280;29744;49.078;12.878;2023-05-23T18:15:08;96286.78;;;17.42;40.80
44079;BME280;29744;49.078;12.878;2023-05-23T18:20:09;96290.63;;;17.41;41.15
44079;BME280;29744;49.078;12.878;2023-05-23T18:25:10;96291.75;;;17.40;41.07
44079;BME280;29744;49.078;12.878;2023-05-23T18:30:10;96289.38;;;17.38;40.89
44079;BME280;29744;49.078;12.878;2023-05-23T18:35:11;96296.72;;;17.38;41.35
44079;BME280;29744;49.078;12.878;2023-05-23T18:40:11;96295.94;;;17.37;40.89
44079;BME280;29744;49.078;12.878;2023-05-23T18:45:14;96304.88;;;17.38;40.78
44079;BME280;29744;49.078;12.878;2023-05-23T18:50:15;96312.56;;;17.35;40.80
44079;BME280;29744;49.078;12.878;2023-05-23T18:55:15;96324.19;;;17.36;41.38
44079;BME280;29744;49.078;12.878;2023-05-23T19:00:16;96334.25;;;17.35;41.18
44079;BME280;29744;49.078;12.878;2023-05-23T19:05:16;96329.16;;;17.34;41.21
44079;BME280;29744;49.078;12.878;2023-05-23T19:10:16;96352.41;;;17.35;41.26
44079;BME280;29744;49.078;12.878;2023-05-23T19:15:17;96355.47;;;17.33;41.21
44079;BME280;29744;49.078;12.878;2023-05-23T19:20:18;96357.06;;;17.34;41.21
44079;BME280;29744;49.078;12.878;2023-05-23T19:25:19;96363.59;;;17.33;41.11
44079;BME280;29744;49.078;12.878;2023-05-23T19:30:20;96369.81;;;17.34;41.18
44079;BME280;29744;49.078;12.878;2023-05-23T19:35:21;96376.38;;;17.33;41.04
44079;BME280;29744;49.078;12.878;2023-05-23T19:40:21;96381.00;;;17.32;40.76
44079;BME280;29744;49.078;12.878;2023-05-23T19:45:22;96397.28;;;17.32;41.25
44079;BME280;29744;49.078;12.878;2023-05-23T19:50:22;96407.31;;;17.32;41.08
44079;BME280;29744;49.078;12.878;2023-05-23T19:55:22;96407.31;;;17.32;40.76
44079;BME280;29744;49.078;12.878;2023-05-23T20:00:23;96415.78;;;17.30;41.11
44079;BME280;29744;49.078;12.878;2023-05-23T20:05:24;96419.28;;;17.31;40.75
44079;BME280;29744;49.078;12.878;2023-05-23T20:10:24;96429.00;;;17.32;41.22
44079;BME280;29744;49.078;12.878;2023-05-23T20:15:25;96429.34;;;17.30;41.02
44079;BME280;29744;49.078;12.878;2023-05-23T20:20:25;96442.91;;;17.30;41.15
44079;BME280;29744;49.078;12.878;2023-05-23T20:25:25;96444.03;;;17.29;40.90
44079;BME280;29744;49.078;12.878;2023-05-23T20:30:27;96449.44;;;17.29;40.93
44079;BME280;29744;49.078;12.878;2023-05-23T20:35:27;96456.44;;;17.30;40.77
44079;BME280;29744;49.078;12.878;2023-05-23T20:40:28;96463.00;;;17.29;40.75
44079;BME280;29744;49.078;12.878;2023-05-23T20:45:31;96469.22;;;17.30;40.95
44079;BME280;29744;49.078;12.878;2023-05-23T20:50:32;96465.72;;;17.29;41.02
44079;BME280;29744;49.078;12.878;2023-05-23T20:55:33;96468.41;;;17.29;41.16
44079;BME280;29744;49.078;12.878;2023-05-23T21:00:34;96476.56;;;17.29;40.87
44079;BME280;29744;49.078;12.878;2023-05-23T21:05:34;96475.75;;;17.29;41.08
44079;BME280;29744;49.078;12.878;2023-05-23T21:10:34;96477.69;;;17.28;40.95
44079;BME280;29744;49.078;12.878;2023-05-23T21:15:35;96488.53;;;17.28;40.84
44079;BME280;29744;49.078;12.878;2023-05-23T21:20:35;96483.09;;;17.28;41.21
44079;BME280;29744;49.078;12.878;2023-05-23T21:25:35;96487.75;;;17.28;40.74
44079;BME280;29744;49.078;12.878;2023-05-23T21:30:35;96493.94;;;17.28;40.97
44079;BME280;29744;49.078;12.878;2023-05-23T21:35:36;96500.16;;;17.29;41.32
44079;BME280;29744;49.078;12.878;2023-05-23T21:40:36;96489.66;;;17.27;40.73
44079;BME280;29744;49.078;12.878;2023-05-23T21:45:37;96495.88;;;17.28;41.03
44079;BME280;29744;49.078;12.878;2023-05-23T21:50:37;96486.94;;;17.27;41.34
44079;BME280;29744;49.078;12.878;2023-05-23T21:55:37;96494.28;;;17.27;40.67
44079;BME280;29744;49.078;12.878;2023-05-23T22:00:38;96501.63;;;17.26;40.94
44079;BME280;29744;49.078;12.878;2023-05-23T22:05:38;96505.91;;;17.27;40.87
44079;BME280;29744;49.078;12.878;2023-05-23T22:10:38;96500.03;;;17.25;40.92
44079;BME280;29744;49.078;12.878;2023-05-23T22:15:39;96511.66;;;17.26;40.79
44079;BME280;29744;49.078;12.878;2023-05-23T22:20:39;96505.13;;;17.27;41.15
44079;BME280;29744;49.078;12.878;2023-05-23T22:25:39;96503.53;;;17.26;40.84
44079;BME280;29744;49.078;12.878;2023-05-23T22:30:40;96507.06;;;17.26;40.85
44079;BME280;29744;49.078;12.878;2023-05-23T22:35:41;96499.72;;;17.27;40.57
44079;BME280;29744;49.078;12.878;2023-05-23T22:40:41;96505.44;;;17.25;40.94
44079;BME280;29744;49.078;12.878;2023-05-23T22:45:41;96506.22;;;17.26;40.81
44079;BME280;29744;49.078;12.878;2023-05-23T22:50:42;96508.94;;;17.26;40.90
44079;BME280;29744;49.078;12.878;2023-05-23T22:55:43;96512.78;;;17.25;40.85
44079;BME280;29744;49.078;12.878;2023-05-23T23:00:43;96510.06;;;17.25;40.45
44079;BME280;29744;49.078;12.878;2023-05-23T23:05:44;96507.34;;;17.25;40.96
44079;BME280;29744;49.078;12.878;2023-05-23T23:10:45;96506.56;;;17.24;40.82
44079;BME280;29744;49.078;12.878;2023-05-23T23:15:45;96513.91;;;17.24;40.75
44079;BME280;29744;49.078;12.878;2023-05-23T23:20:49;96504.66;;;17.25;40.73
44079;BME280;29744;49.078;12.878;2023-05-23T23:25:49;96511.19;;;17.24;40.49
44079;BME280;29744;49.078;12.878;2023-05-23T23:30:51;96516.28;;;17.25;40.53
44079;BME280;29744;49.078;12.878;2023-05-23T23:35:51;96512.00;;;17.24;40.96
44079;BME280;29744;49.078;12.878;2023-05-23T23:40:51;96513.13;;;17.23;40.97
44079;BME280;29744;49.078;12.878;2023-05-23T23:45:52;96523.97;;;17.23;40.72
44079;BME280;29744;49.078;12.878;2023-05-23T23:50:52;96524.75;;;17.24;40.90
44079;BME280;29744;49.078;12.878;2023-05-23T23:55:52;96517.41;;;17.24;41.04
